sensor_id;sensor_type;location;lat;lon;timestamp;temperature;humidity
14733;DHT22;7457;50.960;6.830;2023-06-19T00:01:28;21.20;68.00
14733;DHT22;7457;50.960;6.830;2023-06-19T00:03:54;21.20;68.10
14733;DHT22;7457;50.960;6.830;2023-06-19T00:06:19;21.20;68.30
14733;DHT22;7457;50.960;6.830;2023-06-19T00:08:45;21.10;68.50
14733;DHT22;7457;50.960;6.830;2023-06-19T00:11:10;21.10;68.60
14733;DHT22;7457;50.960;6.830;2023-06-19T00:13:36;21.10;68.70
14733;DHT22;7457;50.960;6.830;2023-06-19T00:16:02;21.10;68.60
14733;DHT22;7457;50.960;6.830;2023-06-19T00:18:28;21.10;68.70
14733;DHT22;7457;50.960;6.830;2023-06-19T00:20:54;21.10;68.80
14733;DHT22;7457;50.960;6.830;2023-06-19T00:23:22;21.00;68.80
14733;DHT22;7457;50.960;6.830;2023-06-19T00:25:48;20.90;68.90
14733;DHT22;7457;50.960;6.830;2023-06-19T00:28:13;20.90;69.10
14733;DHT22;7457;50.960;6.830;2023-06-19T00:30:41;20.90;69.10
14733;DHT22;7457;50.960;6.830;2023-06-19T00:33:07;20.80;69.30
14733;DHT22;7457;50.960;6.830;2023-06-19T00:35:33;20.70;69.30
14733;DHT22;7457;50.960;6.830;2023-06-19T00:37:59;20.70;69.50
14733;DHT22;7457;50.960;6.830;2023-06-19T00:40:30;20.70;69.50
14733;DHT22;7457;50.960;6.830;2023-06-19T00:42:57;20.70;69.70
14733;DHT22;7457;50.960;6.830;2023-06-19T00:45:23;20.60;70.00
14733;DHT22;7457;50.960;6.830;2023-06-19T00:47:53;20.60;70.20
14733;DHT22;7457;50.960;6.830;2023-06-19T00:50:19;20.50;70.70
14733;DHT22;7457;50.960;6.830;2023-06-19T00:52:45;20.40;71.20
14733;DHT22;7457;50.960;6.830;2023-06-19T00:55:11;20.40;71.20
14733;DHT22;7457;50.960;6.830;2023-06-19T00:57:37;20.40;71.30
14733;DHT22;7457;50.960;6.830;2023-06-19T01:00:05;20.50;71.30
14733;DHT22;7457;50.960;6.830;2023-06-19T01:02:33;20.50;71.40
14733;DHT22;7457;50.960;6.830;2023-06-19T01:04:59;20.50;71.60
14733;DHT22;7457;50.960;6.830;2023-06-19T01:07:41;20.50;72.10
14733;DHT22;7457;50.960;6.830;2023-06-19T01:10:15;20.50;72.60
14733;DHT22;7457;50.960;6.830;2023-06-19T01:12:52;20.50;72.60
14733;DHT22;7457;50.960;6.830;2023-06-19T01:15:19;20.50;72.80
14733;DHT22;7457;50.960;6.830;2023-06-19T01:17:46;20.40;72.90
14733;DHT22;7457;50.960;6.830;2023-06-19T01:20:13;20.40;73.40
14733;DHT22;7457;50.960;6.830;2023-06-19T01:22:39;20.30;73.50
14733;DHT22;7457;50.960;6.830;2023-06-19T01:25:09;20.30;73.50
14733;DHT22;7457;50.960;6.830;2023-06-19T01:27:35;20.30;73.70
14733;DHT22;7457;50.960;6.830;2023-06-19T01:30:02;20.30;73.90
14733;DHT22;7457;50.960;6.830;2023-06-19T01:35:04;20.20;74.50
14733;DHT22;7457;50.960;6.830;2023-06-19T01:37:31;20.20;74.30
14733;DHT22;7457;50.960;6.830;2023-06-19T01:39:59;20.20;74.50
14733;DHT22;7457;50.960;6.830;2023-06-19T01:42:26;20.30;74.70
14733;DHT22;7457;50.960;6.830;2023-06-19T01:44:53;20.30;75.10
14733;DHT22;7457;50.960;6.830;2023-06-19T01:47:19;20.30;75.10
14733;DHT22;7457;50.960;6.830;2023-06-19T01:49:49;20.30;75.40
14733;DHT22;7457;50.960;6.830;2023-06-19T01:52:15;20.30;75.50
14733;DHT22;7457;50.960;6.830;2023-06-19T01:54:40;20.30;75.60
14733;DHT22;7457;50.960;6.830;2023-06-19T01:57:06;20.30;75.50
14733;DHT22;7457;50.960;6.830;2023-06-19T01:59:32;20.30;75.50
14733;DHT22;7457;50.960;6.830;2023-06-19T02:01:57;20.30;75.50
14733;DHT22;7457;50.960;6.830;2023-06-19T02:04:23;20.30;75.40
14733;DHT22;7457;50.960;6.830;2023-06-19T02:06:49;20.30;75.30
14733;DHT22;7457;50.960;6.830;2023-06-19T02:09:14;20.30;75.30
14733;DHT22;7457;50.960;6.830;2023-06-19T02:11:40;20.20;75.30
14733;DHT22;7457;50.960;6.830;2023-06-19T02:14:05;20.20;75.50
14733;DHT22;7457;50.960;6.830;2023-06-19T02:16:31;20.10;75.60
14733;DHT22;7457;50.960;6.830;2023-06-19T02:18:57;20.10;75.80
14733;DHT22;7457;50.960;6.830;2023-06-19T02:21:23;20.10;75.80
14733;DHT22;7457;50.960;6.830;2023-06-19T02:23:49;20.10;75.90
14733;DHT22;7457;50.960;6.830;2023-06-19T02:26:15;20.10;75.90
14733;DHT22;7457;50.960;6.830;2023-06-19T02:28:41;20.10;76.00
14733;DHT22;7457;50.960;6.830;2023-06-19T02:31:06;20.00;76.10
14733;DHT22;7457;50.960;6.830;2023-06-19T02:33:32;20.00;76.30
14733;DHT22;7457;50.960;6.830;2023-06-19T02:35:57;20.00;76.40
14733;DHT22;7457;50.960;6.830;2023-06-19T02:38:25;20.00;76.50
14733;DHT22;7457;50.960;6.830;2023-06-19T02:40:51;20.00;76.60
14733;DHT22;7457;50.960;6.830;2023-06-19T02:43:16;20.00;76.60
14733;DHT22;7457;50.960;6.830;2023-06-19T02:45:42;20.10;76.50
14733;DHT22;7457;50.960;6.830;2023-06-19T02:48:08;20.10;76.40
14733;DHT22;7457;50.960;6.830;2023-06-19T02:50:35;20.10;76.20
14733;DHT22;7457;50.960;6.830;2023-06-19T02:53:01;20.10;76.00
14733;DHT22;7457;50.960;6.830;2023-06-19T02:55:26;20.10;75.80
14733;DHT22;7457;50.960;6.830;2023-06-19T02:57:52;20.10;75.70
14733;DHT22;7457;50.960;6.830;2023-06-19T03:00:18;20.10;75.50
14733;DHT22;7457;50.960;6.830;2023-06-19T03:02:43;20.10;75.10
14733;DHT22;7457;50.960;6.830;2023-06-19T03:05:11;20.10;74.80
14733;DHT22;7457;50.960;6.830;2023-06-19T03:07:40;20.00;74.50
14733;DHT22;7457;50.960;6.830;2023-06-19T03:10:05;20.00;74.30
14733;DHT22;7457;50.960;6.830;2023-06-19T03:12:31;20.00;74.10
14733;DHT22;7457;50.960;6.830;2023-06-19T03:14:57;19.90;74.00
14733;DHT22;7457;50.960;6.830;2023-06-19T03:17:22;19.90;74.00
14733;DHT22;7457;50.960;6.830;2023-06-19T03:19:48;19.80;74.00
14733;DHT22;7457;50.960;6.830;2023-06-19T03:22:13;19.80;73.90
14733;DHT22;7457;50.960;6.830;2023-06-19T03:24:39;19.70;73.90
14733;DHT22;7457;50.960;6.830;2023-06-19T03:27:05;19.70;73.90
14733;DHT22;7457;50.960;6.830;2023-06-19T03:29:31;19.60;73.80
14733;DHT22;7457;50.960;6.830;2023-06-19T03:31:56;19.60;73.70
14733;DHT22;7457;50.960;6.830;2023-06-19T03:34:22;19.60;73.70
14733;DHT22;7457;50.960;6.830;2023-06-19T03:36:47;19.60;73.60
14733;DHT22;7457;50.960;6.830;2023-06-19T03:39:13;19.60;73.60
14733;DHT22;7457;50.960;6.830;2023-06-19T03:41:39;19.60;73.50
14733;DHT22;7457;50.960;6.830;2023-06-19T03:44:05;19.50;73.50
14733;DHT22;7457;50.960;6.830;2023-06-19T03:46:30;19.50;73.40
14733;DHT22;7457;50.960;6.830;2023-06-19T03:48:56;19.50;73.40
14733;DHT22;7457;50.960;6.830;2023-06-19T03:51:21;19.40;73.50
14733;DHT22;7457;50.960;6.830;2023-06-19T03:53:47;19.40;73.70
14733;DHT22;7457;50.960;6.830;2023-06-19T03:56:13;19.30;73.90
14733;DHT22;7457;50.960;6.830;2023-06-19T03:58:38;19.30;74.10
14733;DHT22;7457;50.960;6.830;2023-06-19T04:01:04;19.30;74.50
14733;DHT22;7457;50.960;6.830;2023-06-19T04:03:31;19.30;74.60
14733;DHT22;7457;50.960;6.830;2023-06-19T04:05:56;19.30;75.00
14733;DHT22;7457;50.960;6.830;2023-06-19T04:08:22;19.30;75.40
14733;DHT22;7457;50.960;6.830;2023-06-19T04:10:48;19.30;75.60
14733;DHT22;7457;50.960;6.830;2023-06-19T04:13:13;19.20;75.90
14733;DHT22;7457;50.960;6.830;2023-06-19T04:15:39;19.30;76.30
14733;DHT22;7457;50.960;6.830;2023-06-19T04:18:04;19.30;76.40
14733;DHT22;7457;50.960;6.830;2023-06-19T04:20:30;19.40;76.50
14733;DHT22;7457;50.960;6.830;2023-06-19T04:22:56;19.40;76.70
14733;DHT22;7457;50.960;6.830;2023-06-19T04:25:22;19.40;76.90
14733;DHT22;7457;50.960;6.830;2023-06-19T04:27:47;19.50;76.80
14733;DHT22;7457;50.960;6.830;2023-06-19T04:30:13;19.50;76.90
14733;DHT22;7457;50.960;6.830;2023-06-19T04:32:38;19.50;77.00
14733;DHT22;7457;50.960;6.830;2023-06-19T04:35:08;19.50;76.80
14733;DHT22;7457;50.960;6.830;2023-06-19T04:37:33;19.60;76.80
14733;DHT22;7457;50.960;6.830;2023-06-19T04:39:59;19.60;76.90
14733;DHT22;7457;50.960;6.830;2023-06-19T04:42:25;19.60;77.10
14733;DHT22;7457;50.960;6.830;2023-06-19T04:44:52;19.60;77.10
14733;DHT22;7457;50.960;6.830;2023-06-19T04:47:19;19.60;77.30
14733;DHT22;7457;50.960;6.830;2023-06-19T04:49:46;19.60;77.80
14733;DHT22;7457;50.960;6.830;2023-06-19T04:52:11;19.60;79.20
14733;DHT22;7457;50.960;6.830;2023-06-19T04:54:37;19.80;78.70
14733;DHT22;7457;50.960;6.830;2023-06-19T04:57:03;20.10;77.80
14733;DHT22;7457;50.960;6.830;2023-06-19T04:59:29;20.20;77.30
14733;DHT22;7457;50.960;6.830;2023-06-19T05:01:56;20.40;77.90
14733;DHT22;7457;50.960;6.830;2023-06-19T05:04:22;20.50;76.70
14733;DHT22;7457;50.960;6.830;2023-06-19T05:06:49;20.60;76.20
14733;DHT22;7457;50.960;6.830;2023-06-19T05:09:14;20.60;76.20
14733;DHT22;7457;50.960;6.830;2023-06-19T05:11:40;20.70;76.60
14733;DHT22;7457;50.960;6.830;2023-06-19T05:14:06;20.80;77.30
14733;DHT22;7457;50.960;6.830;2023-06-19T05:16:33;20.90;76.70
14733;DHT22;7457;50.960;6.830;2023-06-19T05:18:58;21.10;76.10
14733;DHT22;7457;50.960;6.830;2023-06-19T05:21:24;21.30;76.40
14733;DHT22;7457;50.960;6.830;2023-06-19T05:23:50;21.50;75.30
14733;DHT22;7457;50.960;6.830;2023-06-19T05:26:21;21.70;75.90
14733;DHT22;7457;50.960;6.830;2023-06-19T05:28:48;22.00;75.10
14733;DHT22;7457;50.960;6.830;2023-06-19T05:31:14;22.20;73.90
14733;DHT22;7457;50.960;6.830;2023-06-19T05:33:40;22.30;73.40
14733;DHT22;7457;50.960;6.830;2023-06-19T05:36:06;22.20;73.10
14733;DHT22;7457;50.960;6.830;2023-06-19T05:38:32;22.10;73.20
14733;DHT22;7457;50.960;6.830;2023-06-19T05:40:58;22.00;72.90
14733;DHT22;7457;50.960;6.830;2023-06-19T05:43:24;21.90;73.50
14733;DHT22;7457;50.960;6.830;2023-06-19T05:45:53;21.90;73.80
14733;DHT22;7457;50.960;6.830;2023-06-19T05:48:19;21.90;73.30
14733;DHT22;7457;50.960;6.830;2023-06-19T05:50:45;21.90;73.30
14733;DHT22;7457;50.960;6.830;2023-06-19T05:53:11;21.90;73.40
14733;DHT22;7457;50.960;6.830;2023-06-19T05:55:36;21.90;73.20
14733;DHT22;7457;50.960;6.830;2023-06-19T05:58:03;22.00;73.10
14733;DHT22;7457;50.960;6.830;2023-06-19T06:00:29;22.00;72.00
14733;DHT22;7457;50.960;6.830;2023-06-19T06:02:56;22.00;71.50
14733;DHT22;7457;50.960;6.830;2023-06-19T06:05:25;22.00;72.00
14733;DHT22;7457;50.960;6.830;2023-06-19T06:07:52;22.10;72.50
14733;DHT22;7457;50.960;6.830;2023-06-19T06:10:22;22.20;72.10
14733;DHT22;7457;50.960;6.830;2023-06-19T06:12:48;22.30;71.60
14733;DHT22;7457;50.960;6.830;2023-06-19T06:15:14;22.40;70.50
14733;DHT22;7457;50.960;6.830;2023-06-19T06:17:39;22.40;70.20
14733;DHT22;7457;50.960;6.830;2023-06-19T06:20:05;22.40;69.80
14733;DHT22;7457;50.960;6.830;2023-06-19T06:22:36;22.30;69.70
14733;DHT22;7457;50.960;6.830;2023-06-19T06:25:02;22.30;69.80
14733;DHT22;7457;50.960;6.830;2023-06-19T06:27:28;22.20;69.80
14733;DHT22;7457;50.960;6.830;2023-06-19T06:29:53;22.20;70.00
14733;DHT22;7457;50.960;6.830;2023-06-19T06:32:19;22.10;70.40
14733;DHT22;7457;50.960;6.830;2023-06-19T06:34:45;22.20;71.20
14733;DHT22;7457;50.960;6.830;2023-06-19T06:37:10;22.40;70.80
14733;DHT22;7457;50.960;6.830;2023-06-19T06:39:36;22.50;70.20
14733;DHT22;7457;50.960;6.830;2023-06-19T06:42:01;22.60;70.10
14733;DHT22;7457;50.960;6.830;2023-06-19T06:44:27;22.80;70.20
14733;DHT22;7457;50.960;6.830;2023-06-19T06:46:53;23.00;68.80
14733;DHT22;7457;50.960;6.830;2023-06-19T06:49:19;23.10;68.30
14733;DHT22;7457;50.960;6.830;2023-06-19T06:51:45;23.20;68.40
14733;DHT22;7457;50.960;6.830;2023-06-19T06:54:11;23.20;68.20
14733;DHT22;7457;50.960;6.830;2023-06-19T06:56:36;23.20;67.70
14733;DHT22;7457;50.960;6.830;2023-06-19T06:59:02;23.20;67.10
14733;DHT22;7457;50.960;6.830;2023-06-19T07:01:27;23.10;67.40
14733;DHT22;7457;50.960;6.830;2023-06-19T07:03:53;23.10;67.30
14733;DHT22;7457;50.960;6.830;2023-06-19T07:06:19;23.10;67.40
14733;DHT22;7457;50.960;6.830;2023-06-19T07:08:44;23.10;67.20
14733;DHT22;7457;50.960;6.830;2023-06-19T07:11:13;23.20;67.20
14733;DHT22;7457;50.960;6.830;2023-06-19T07:13:39;23.30;67.20
14733;DHT22;7457;50.960;6.830;2023-06-19T07:16:07;23.40;67.70
14733;DHT22;7457;50.960;6.830;2023-06-19T07:18:32;23.50;67.70
14733;DHT22;7457;50.960;6.830;2023-06-19T07:21:00;23.70;67.30
14733;DHT22;7457;50.960;6.830;2023-06-19T07:23:26;23.90;66.80
14733;DHT22;7457;50.960;6.830;2023-06-19T07:25:52;24.00;66.10
14733;DHT22;7457;50.960;6.830;2023-06-19T07:28:18;24.10;65.50
14733;DHT22;7457;50.960;6.830;2023-06-19T07:30:43;24.10;65.40
14733;DHT22;7457;50.960;6.830;2023-06-19T07:33:09;24.10;64.80
14733;DHT22;7457;50.960;6.830;2023-06-19T07:35:35;24.00;64.70
14733;DHT22;7457;50.960;6.830;2023-06-19T07:38:01;23.90;64.30
14733;DHT22;7457;50.960;6.830;2023-06-19T07:40:26;23.80;64.60
14733;DHT22;7457;50.960;6.830;2023-06-19T07:42:52;23.70;65.10
14733;DHT22;7457;50.960;6.830;2023-06-19T07:45:17;23.60;65.40
14733;DHT22;7457;50.960;6.830;2023-06-19T07:47:43;23.50;65.70
14733;DHT22;7457;50.960;6.830;2023-06-19T07:50:09;23.50;66.20
14733;DHT22;7457;50.960;6.830;2023-06-19T07:52:35;23.50;66.20
14733;DHT22;7457;50.960;6.830;2023-06-19T07:55:00;23.50;66.00
14733;DHT22;7457;50.960;6.830;2023-06-19T07:57:26;23.50;66.00
14733;DHT22;7457;50.960;6.830;2023-06-19T07:59:54;23.50;66.20
14733;DHT22;7457;50.960;6.830;2023-06-19T08:02:19;23.40;66.30
14733;DHT22;7457;50.960;6.830;2023-06-19T08:04:46;23.30;66.50
14733;DHT22;7457;50.960;6.830;2023-06-19T08:07:12;23.40;66.70
14733;DHT22;7457;50.960;6.830;2023-06-19T08:09:38;23.40;66.60
14733;DHT22;7457;50.960;6.830;2023-06-19T08:12:03;23.40;66.80
14733;DHT22;7457;50.960;6.830;2023-06-19T08:14:29;23.50;67.00
14733;DHT22;7457;50.960;6.830;2023-06-19T08:16:55;23.60;67.00
14733;DHT22;7457;50.960;6.830;2023-06-19T08:19:20;23.60;67.10
14733;DHT22;7457;50.960;6.830;2023-06-19T08:21:46;23.70;67.20
14733;DHT22;7457;50.960;6.830;2023-06-19T08:24:12;23.90;67.20
14733;DHT22;7457;50.960;6.830;2023-06-19T08:26:38;24.20;67.40
14733;DHT22;7457;50.960;6.830;2023-06-19T08:29:03;24.40;65.90
14733;DHT22;7457;50.960;6.830;2023-06-19T08:31:29;24.60;65.20
14733;DHT22;7457;50.960;6.830;2023-06-19T08:33:56;24.70;65.40
14733;DHT22;7457;50.960;6.830;2023-06-19T08:36:22;24.90;64.90
14733;DHT22;7457;50.960;6.830;2023-06-19T08:38:48;25.10;64.30
14733;DHT22;7457;50.960;6.830;2023-06-19T08:41:17;25.30;63.30
14733;DHT22;7457;50.960;6.830;2023-06-19T08:43:44;25.40;64.30
14733;DHT22;7457;50.960;6.830;2023-06-19T08:46:13;25.50;62.40
14733;DHT22;7457;50.960;6.830;2023-06-19T08:48:39;25.60;62.50
14733;DHT22;7457;50.960;6.830;2023-06-19T08:51:05;25.60;61.60
14733;DHT22;7457;50.960;6.830;2023-06-19T08:53:35;25.40;61.60
14733;DHT22;7457;50.960;6.830;2023-06-19T08:56:03;25.50;63.50
14733;DHT22;7457;50.960;6.830;2023-06-19T08:58:29;25.80;63.30
14733;DHT22;7457;50.960;6.830;2023-06-19T09:00:57;26.30;62.50
14733;DHT22;7457;50.960;6.830;2023-06-19T09:03:23;26.80;60.20
14733;DHT22;7457;50.960;6.830;2023-06-19T09:05:49;27.00;59.00
14733;DHT22;7457;50.960;6.830;2023-06-19T09:08:16;26.90;59.60
14733;DHT22;7457;50.960;6.830;2023-06-19T09:10:43;27.10;59.40
14733;DHT22;7457;50.960;6.830;2023-06-19T09:13:09;27.40;59.40
14733;DHT22;7457;50.960;6.830;2023-06-19T09:15:36;27.60;57.70
14733;DHT22;7457;50.960;6.830;2023-06-19T09:18:09;27.50;56.80
14733;DHT22;7457;50.960;6.830;2023-06-19T09:20:38;27.20;57.80
14733;DHT22;7457;50.960;6.830;2023-06-19T09:23:10;27.20;57.90
14733;DHT22;7457;50.960;6.830;2023-06-19T09:25:53;27.50;57.30
14733;DHT22;7457;50.960;6.830;2023-06-19T09:28:21;27.90;56.60
14733;DHT22;7457;50.960;6.830;2023-06-19T09:33:22;28.50;55.40
14733;DHT22;7457;50.960;6.830;2023-06-19T09:35:49;28.60;55.60
14733;DHT22;7457;50.960;6.830;2023-06-19T09:38:17;28.70;54.40
14733;DHT22;7457;50.960;6.830;2023-06-19T09:40:47;28.80;55.30
14733;DHT22;7457;50.960;6.830;2023-06-19T09:43:18;28.80;55.70
14733;DHT22;7457;50.960;6.830;2023-06-19T09:45:48;29.10;54.80
14733;DHT22;7457;50.960;6.830;2023-06-19T09:48:19;29.50;54.20
14733;DHT22;7457;50.960;6.830;2023-06-19T09:50:51;30.00;53.30
14733;DHT22;7457;50.960;6.830;2023-06-19T09:53:20;30.50;52.30
14733;DHT22;7457;50.960;6.830;2023-06-19T09:55:49;30.90;51.10
14733;DHT22;7457;50.960;6.830;2023-06-19T09:58:19;31.30;49.90
14733;DHT22;7457;50.960;6.830;2023-06-19T10:00:46;31.50;49.00
14733;DHT22;7457;50.960;6.830;2023-06-19T10:03:13;31.60;48.50
14733;DHT22;7457;50.960;6.830;2023-06-19T10:05:39;31.80;48.50
14733;DHT22;7457;50.960;6.830;2023-06-19T10:08:08;31.90;48.40
14733;DHT22;7457;50.960;6.830;2023-06-19T10:10:35;31.90;48.00
14733;DHT22;7457;50.960;6.830;2023-06-19T10:13:15;31.90;47.80
14733;DHT22;7457;50.960;6.830;2023-06-19T10:15:42;31.90;47.90
14733;DHT22;7457;50.960;6.830;2023-06-19T10:18:16;32.10;48.00
14733;DHT22;7457;50.960;6.830;2023-06-19T10:20:43;32.30;47.20
14733;DHT22;7457;50.960;6.830;2023-06-19T10:25:42;32.20;47.10
14733;DHT22;7457;50.960;6.830;2023-06-19T10:31:00;31.90;46.50
14733;DHT22;7457;50.960;6.830;2023-06-19T10:33:31;31.80;47.30
14733;DHT22;7457;50.960;6.830;2023-06-19T10:36:13;31.90;47.40
14733;DHT22;7457;50.960;6.830;2023-06-19T10:38:38;32.20;47.70
14733;DHT22;7457;50.960;6.830;2023-06-19T10:41:04;32.40;46.80
14733;DHT22;7457;50.960;6.830;2023-06-19T10:43:29;32.40;45.60
14733;DHT22;7457;50.960;6.830;2023-06-19T10:45:58;32.30;45.60
14733;DHT22;7457;50.960;6.830;2023-06-19T10:48:24;32.20;45.50
14733;DHT22;7457;50.960;6.830;2023-06-19T10:50:51;32.20;45.50
14733;DHT22;7457;50.960;6.830;2023-06-19T10:53:27;32.10;45.40
14733;DHT22;7457;50.960;6.830;2023-06-19T10:56:02;32.20;45.80
14733;DHT22;7457;50.960;6.830;2023-06-19T10:58:28;32.20;44.80
14733;DHT22;7457;50.960;6.830;2023-06-19T11:00:55;32.00;45.40
14733;DHT22;7457;50.960;6.830;2023-06-19T11:03:21;31.80;45.30
14733;DHT22;7457;50.960;6.830;2023-06-19T11:05:48;31.60;45.40
14733;DHT22;7457;50.960;6.830;2023-06-19T11:08:22;31.50;45.90
14733;DHT22;7457;50.960;6.830;2023-06-19T11:10:49;31.50;45.90
14733;DHT22;7457;50.960;6.830;2023-06-19T11:13:16;31.60;46.30
14733;DHT22;7457;50.960;6.830;2023-06-19T11:15:42;31.80;45.80
14733;DHT22;7457;50.960;6.830;2023-06-19T11:18:08;31.90;45.20
14733;DHT22;7457;50.960;6.830;2023-06-19T11:20:47;31.90;44.80
14733;DHT22;7457;50.960;6.830;2023-06-19T11:23:15;31.90;45.20
14733;DHT22;7457;50.960;6.830;2023-06-19T11:25:41;32.10;45.10
14733;DHT22;7457;50.960;6.830;2023-06-19T11:28:15;32.20;44.20
14733;DHT22;7457;50.960;6.830;2023-06-19T11:30:43;32.40;43.80
14733;DHT22;7457;50.960;6.830;2023-06-19T11:33:19;32.50;44.20
14733;DHT22;7457;50.960;6.830;2023-06-19T11:35:54;32.70;43.60
14733;DHT22;7457;50.960;6.830;2023-06-19T11:38:24;32.80;43.60
14733;DHT22;7457;50.960;6.830;2023-06-19T11:40:50;32.80;43.70
14733;DHT22;7457;50.960;6.830;2023-06-19T11:43:29;32.80;43.50
14733;DHT22;7457;50.960;6.830;2023-06-19T11:46:07;32.90;43.20
14733;DHT22;7457;50.960;6.830;2023-06-19T11:48:37;32.90;43.10
14733;DHT22;7457;50.960;6.830;2023-06-19T11:51:03;32.90;43.00
14733;DHT22;7457;50.960;6.830;2023-06-19T11:53:28;32.90;42.60
14733;DHT22;7457;50.960;6.830;2023-06-19T11:55:55;32.70;42.60
14733;DHT22;7457;50.960;6.830;2023-06-19T11:58:20;32.50;42.30
14733;DHT22;7457;50.960;6.830;2023-06-19T12:00:46;32.20;42.80
14733;DHT22;7457;50.960;6.830;2023-06-19T12:03:12;32.10;43.10
14733;DHT22;7457;50.960;6.830;2023-06-19T12:05:38;32.20;43.70
14733;DHT22;7457;50.960;6.830;2023-06-19T12:08:04;32.40;43.50
14733;DHT22;7457;50.960;6.830;2023-06-19T12:10:30;32.40;43.20
14733;DHT22;7457;50.960;6.830;2023-06-19T12:12:56;32.40;43.00
14733;DHT22;7457;50.960;6.830;2023-06-19T12:15:22;32.50;42.90
14733;DHT22;7457;50.960;6.830;2023-06-19T12:17:48;32.60;42.60
14733;DHT22;7457;50.960;6.830;2023-06-19T12:20:14;32.70;42.50
14733;DHT22;7457;50.960;6.830;2023-06-19T12:22:40;32.70;42.90
14733;DHT22;7457;50.960;6.830;2023-06-19T12:25:06;32.80;42.80
14733;DHT22;7457;50.960;6.830;2023-06-19T12:27:31;32.80;42.50
14733;DHT22;7457;50.960;6.830;2023-06-19T12:29:57;32.80;41.90
14733;DHT22;7457;50.960;6.830;2023-06-19T12:32:23;32.60;41.70
14733;DHT22;7457;50.960;6.830;2023-06-19T12:34:49;32.40;42.50
14733;DHT22;7457;50.960;6.830;2023-06-19T12:37:19;32.20;43.10
14733;DHT22;7457;50.960;6.830;2023-06-19T12:39:49;32.10;43.50
14733;DHT22;7457;50.960;6.830;2023-06-19T12:42:15;31.90;42.80
14733;DHT22;7457;50.960;6.830;2023-06-19T12:44:41;31.70;43.40
14733;DHT22;7457;50.960;6.830;2023-06-19T12:47:07;31.50;43.20
14733;DHT22;7457;50.960;6.830;2023-06-19T12:49:33;31.30;43.00
14733;DHT22;7457;50.960;6.830;2023-06-19T12:51:59;31.10;43.20
14733;DHT22;7457;50.960;6.830;2023-06-19T12:54:25;31.00;44.30
14733;DHT22;7457;50.960;6.830;2023-06-19T12:56:51;30.90;44.10
14733;DHT22;7457;50.960;6.830;2023-06-19T12:59:17;30.90;43.60
14733;DHT22;7457;50.960;6.830;2023-06-19T13:01:42;30.80;43.30
14733;DHT22;7457;50.960;6.830;2023-06-19T13:04:09;30.70;43.00
14733;DHT22;7457;50.960;6.830;2023-06-19T13:06:36;30.50;43.10
14733;DHT22;7457;50.960;6.830;2023-06-19T13:09:02;30.30;44.20
14733;DHT22;7457;50.960;6.830;2023-06-19T13:11:27;30.20;45.10
14733;DHT22;7457;50.960;6.830;2023-06-19T13:13:53;30.30;45.20
14733;DHT22;7457;50.960;6.830;2023-06-19T13:16:19;30.30;44.20
14733;DHT22;7457;50.960;6.830;2023-06-19T13:18:45;30.20;44.50
14733;DHT22;7457;50.960;6.830;2023-06-19T13:21:13;30.10;44.30
14733;DHT22;7457;50.960;6.830;2023-06-19T13:23:40;30.00;44.60
14733;DHT22;7457;50.960;6.830;2023-06-19T13:26:06;29.80;44.60
14733;DHT22;7457;50.960;6.830;2023-06-19T13:28:32;29.80;45.80
14733;DHT22;7457;50.960;6.830;2023-06-19T13:30:58;29.90;45.90
14733;DHT22;7457;50.960;6.830;2023-06-19T13:33:23;30.00;45.80
14733;DHT22;7457;50.960;6.830;2023-06-19T13:35:49;30.10;45.40
14733;DHT22;7457;50.960;6.830;2023-06-19T13:38:15;30.20;45.10
14733;DHT22;7457;50.960;6.830;2023-06-19T13:40:41;30.30;44.80
14733;DHT22;7457;50.960;6.830;2023-06-19T13:43:07;30.40;44.50
14733;DHT22;7457;50.960;6.830;2023-06-19T13:45:33;30.40;44.40
14733;DHT22;7457;50.960;6.830;2023-06-19T13:48:00;30.30;44.00
14733;DHT22;7457;50.960;6.830;2023-06-19T13:50:26;30.30;44.20
14733;DHT22;7457;50.960;6.830;2023-06-19T13:52:51;30.20;43.90
14733;DHT22;7457;50.960;6.830;2023-06-19T13:55:17;30.20;44.00
14733;DHT22;7457;50.960;6.830;2023-06-19T13:57:44;30.30;44.10
14733;DHT22;7457;50.960;6.830;2023-06-19T14:00:11;30.30;44.00
14733;DHT22;7457;50.960;6.830;2023-06-19T14:02:38;30.30;43.70
14733;DHT22;7457;50.960;6.830;2023-06-19T14:05:05;30.40;43.70
14733;DHT22;7457;50.960;6.830;2023-06-19T14:07:31;30.30;43.50
14733;DHT22;7457;50.960;6.830;2023-06-19T14:09:57;30.20;43.50
14733;DHT22;7457;50.960;6.830;2023-06-19T14:12:23;30.10;42.90
14733;DHT22;7457;50.960;6.830;2023-06-19T14:14:48;30.00;43.60
14733;DHT22;7457;50.960;6.830;2023-06-19T14:17:14;29.90;43.80
14733;DHT22;7457;50.960;6.830;2023-06-19T14:19:40;29.80;43.90
14733;DHT22;7457;50.960;6.830;2023-06-19T14:22:05;29.80;44.40
14733;DHT22;7457;50.960;6.830;2023-06-19T14:24:31;29.80;44.40
14733;DHT22;7457;50.960;6.830;2023-06-19T14:26:57;29.70;44.40
14733;DHT22;7457;50.960;6.830;2023-06-19T14:29:22;29.60;44.40
14733;DHT22;7457;50.960;6.830;2023-06-19T14:31:51;29.50;44.50
14733;DHT22;7457;50.960;6.830;2023-06-19T14:34:17;29.40;44.80
14733;DHT22;7457;50.960;6.830;2023-06-19T14:36:42;29.40;45.10
14733;DHT22;7457;50.960;6.830;2023-06-19T14:39:08;29.40;45.20
14733;DHT22;7457;50.960;6.830;2023-06-19T14:41:34;29.40;45.30
14733;DHT22;7457;50.960;6.830;2023-06-19T14:43:59;29.40;45.40
14733;DHT22;7457;50.960;6.830;2023-06-19T14:46:25;29.40;45.40
14733;DHT22;7457;50.960;6.830;2023-06-19T14:48:51;29.40;45.40
14733;DHT22;7457;50.960;6.830;2023-06-19T14:51:16;29.30;45.20
14733;DHT22;7457;50.960;6.830;2023-06-19T14:53:42;29.40;45.20
14733;DHT22;7457;50.960;6.830;2023-06-19T14:56:08;29.30;45.20
14733;DHT22;7457;50.960;6.830;2023-06-19T14:58:33;29.30;45.00
14733;DHT22;7457;50.960;6.830;2023-06-19T15:00:59;29.30;44.70
14733;DHT22;7457;50.960;6.830;2023-06-19T15:03:24;29.30;44.90
14733;DHT22;7457;50.960;6.830;2023-06-19T15:05:50;29.30;44.70
14733;DHT22;7457;50.960;6.830;2023-06-19T15:08:16;29.30;45.00
14733;DHT22;7457;50.960;6.830;2023-06-19T15:10:47;29.20;45.00
14733;DHT22;7457;50.960;6.830;2023-06-19T15:13:13;29.20;45.00
14733;DHT22;7457;50.960;6.830;2023-06-19T15:15:39;29.20;45.40
14733;DHT22;7457;50.960;6.830;2023-06-19T15:18:05;29.30;45.30
14733;DHT22;7457;50.960;6.830;2023-06-19T15:20:32;29.30;44.90
14733;DHT22;7457;50.960;6.830;2023-06-19T15:22:58;29.30;44.60
14733;DHT22;7457;50.960;6.830;2023-06-19T15:25:23;29.30;44.50
14733;DHT22;7457;50.960;6.830;2023-06-19T15:27:49;29.20;44.50
14733;DHT22;7457;50.960;6.830;2023-06-19T15:30:14;29.20;44.50
14733;DHT22;7457;50.960;6.830;2023-06-19T15:32:40;29.20;44.70
14733;DHT22;7457;50.960;6.830;2023-06-19T15:35:06;29.10;44.60
14733;DHT22;7457;50.960;6.830;2023-06-19T15:37:32;29.10;44.80
14733;DHT22;7457;50.960;6.830;2023-06-19T15:39:57;29.00;44.90
14733;DHT22;7457;50.960;6.830;2023-06-19T15:42:23;29.00;45.00
14733;DHT22;7457;50.960;6.830;2023-06-19T15:44:49;29.00;45.20
14733;DHT22;7457;50.960;6.830;2023-06-19T15:47:14;29.00;45.10
14733;DHT22;7457;50.960;6.830;2023-06-19T15:49:40;29.10;45.10
14733;DHT22;7457;50.960;6.830;2023-06-19T15:52:06;29.10;45.00